createdAt,value
2024-02-07T00:00:19.644Z,4.67
2024-02-07T00:02:22.937Z,4.68
2024-02-07T00:04:27.611Z,4.70
2024-02-07T00:06:30.996Z,4.70
2024-02-07T00:08:34.129Z,4.71
2024-02-07T00:10:37.202Z,4.72
2024-02-07T00:12:40.314Z,4.72
2024-02-07T00:14:43.378Z,4.73
2024-02-07T00:16:46.477Z,4.74
2024-02-07T00:18:49.552Z,4.74
2024-02-07T00:20:54.131Z,4.77
2024-02-07T00:22:57.256Z,4.76
2024-02-07T00:25:00.390Z,4.78
2024-02-07T00:27:03.961Z,4.79
2024-02-07T00:29:07.053Z,4.80
2024-02-07T00:31:10.269Z,4.81
2024-02-07T00:33:13.566Z,4.81
2024-02-07T00:35:16.697Z,4.81
2024-02-07T00:37:21.204Z,4.80
2024-02-07T00:39:24.292Z,4.81
2024-02-07T00:41:27.725Z,4.82
2024-02-07T00:43:34.464Z,4.82
2024-02-07T00:45:37.712Z,4.83
2024-02-07T00:47:41.768Z,4.84
2024-02-07T00:49:45.159Z,4.84
2024-02-07T00:51:48.348Z,4.85
2024-02-07T00:53:51.848Z,4.85
2024-02-07T00:55:54.998Z,4.86
2024-02-07T00:57:58.083Z,4.86
2024-02-07T01:00:00.137Z,4.86
2024-02-07T01:02:03.633Z,4.86
2024-02-07T01:04:06.849Z,4.86
2024-02-07T01:06:10.136Z,4.87
2024-02-07T01:08:13.283Z,4.87
2024-02-07T01:10:18.236Z,4.88
2024-02-07T01:12:21.381Z,4.88
2024-02-07T01:14:27.791Z,4.88
2024-02-07T01:16:30.858Z,4.89
2024-02-07T01:18:33.982Z,4.90
2024-02-07T01:20:37.152Z,4.89
2024-02-07T01:22:40.479Z,4.89
2024-02-07T01:24:43.751Z,4.89
2024-02-07T01:26:48.558Z,4.88
2024-02-07T01:28:52.388Z,4.89
2024-02-07T01:30:55.556Z,4.89
2024-02-07T01:32:57.699Z,4.87
2024-02-07T01:35:01.660Z,4.88
2024-02-07T01:37:06.535Z,4.87
2024-02-07T01:39:11.447Z,4.88
2024-02-07T01:41:14.449Z,4.87
2024-02-07T01:43:19.160Z,4.87
2024-02-07T01:45:25.620Z,4.88
2024-02-07T01:47:28.725Z,4.87
2024-02-07T01:49:30.922Z,4.86
2024-02-07T01:51:34.011Z,4.86
2024-02-07T01:53:39.827Z,4.85
2024-02-07T01:55:45.716Z,4.84
2024-02-07T01:57:49.800Z,4.84
2024-02-07T01:59:54.345Z,4.84
2024-02-07T02:01:58.239Z,4.85
2024-02-07T02:04:01.429Z,4.83
2024-02-07T02:06:04.860Z,4.83
2024-02-07T02:08:08.783Z,4.83
2024-02-07T02:10:14.551Z,4.84
2024-02-07T02:12:19.261Z,4.84
2024-02-07T02:14:23.145Z,4.84
2024-02-07T02:16:27.556Z,4.84
2024-02-07T02:18:31.827Z,4.84
2024-02-07T02:20:38.244Z,4.85
2024-02-07T02:25:42.013Z,4.84
2024-02-07T02:27:54.096Z,4.83
2024-02-07T02:30:10.594Z,4.84
2024-02-07T02:32:13.978Z,4.84
2024-02-07T02:34:16.571Z,4.83
2024-02-07T02:36:19.763Z,4.83
2024-02-07T02:38:24.905Z,4.84
2024-02-07T02:40:29.397Z,4.82
2024-02-07T02:42:32.383Z,4.82
2024-02-07T02:44:35.560Z,4.80
2024-02-07T02:46:40.096Z,4.80
2024-02-07T02:48:43.214Z,4.81
2024-02-07T02:50:46.973Z,4.81
2024-02-07T02:52:50.142Z,4.81
2024-02-07T02:54:53.296Z,4.81
2024-02-07T02:57:01.204Z,4.81
2024-02-07T02:59:06.954Z,4.82
2024-02-07T03:01:11.343Z,4.82
2024-02-07T03:03:17.407Z,4.83
2024-02-07T03:05:39.366Z,4.82
2024-02-07T03:07:56.061Z,4.84
2024-02-07T03:09:59.350Z,4.84
2024-02-07T03:12:02.483Z,4.86
2024-02-07T03:14:05.938Z,4.85
2024-02-07T03:16:09.196Z,4.87
2024-02-07T03:18:12.847Z,4.90
2024-02-07T03:20:18.019Z,4.88
2024-02-07T03:22:20.107Z,4.89
2024-02-07T03:24:23.210Z,4.89
2024-02-07T03:26:26.276Z,4.91
2024-02-07T03:28:31.363Z,4.92
2024-02-07T03:30:35.472Z,4.92
2024-02-07T03:32:39.600Z,4.94
2024-02-07T03:34:43.689Z,4.94
2024-02-07T03:36:48.455Z,4.95
2024-02-07T03:38:51.839Z,4.95
2024-02-07T03:40:55.994Z,4.95
2024-02-07T03:43:00.019Z,4.94
2024-02-07T03:45:05.003Z,4.95
2024-02-07T03:47:10.668Z,4.95
2024-02-07T03:49:13.984Z,4.95
2024-02-07T03:51:17.626Z,4.93
2024-02-07T03:53:21.063Z,4.90
2024-02-07T03:55:24.137Z,4.88
2024-02-07T03:57:27.161Z,4.85
2024-02-07T03:59:30.282Z,4.84
2024-02-07T04:01:33.418Z,4.83
2024-02-07T04:03:36.436Z,4.78
2024-02-07T04:05:41.051Z,4.76
2024-02-07T04:07:44.757Z,4.70
2024-02-07T04:09:48.359Z,4.62
2024-02-07T04:11:50.288Z,4.55
2024-02-07T04:13:52.295Z,4.48
2024-02-07T04:16:13.045Z,4.43
2024-02-07T04:18:34.002Z,4.39
2024-02-07T04:20:54.732Z,4.36
2024-02-07T04:23:15.341Z,4.35
2024-02-07T04:25:37.152Z,4.34
2024-02-07T04:27:57.880Z,4.32
2024-02-07T04:30:20.618Z,4.29
2024-02-07T04:32:41.266Z,4.25
2024-02-07T04:35:02.260Z,4.22
2024-02-07T04:37:24.869Z,4.19
2024-02-07T04:39:45.238Z,4.17
2024-02-07T04:42:07.176Z,4.15
2024-02-07T04:44:28.077Z,4.11
2024-02-07T04:46:48.773Z,4.10
2024-02-07T04:49:09.587Z,4.11
2024-02-07T04:51:30.584Z,4.09
2024-02-07T04:53:50.777Z,4.08
2024-02-07T04:56:11.150Z,4.07
2024-02-07T04:58:33.951Z,4.07
2024-02-07T05:00:54.750Z,4.07
2024-02-07T05:03:15.399Z,4.07
2024-02-07T05:05:36.245Z,4.06
2024-02-07T05:07:56.907Z,4.06
2024-02-07T05:10:17.660Z,4.05
2024-02-07T05:12:37.803Z,4.04
2024-02-07T05:14:49.971Z,4.04
2024-02-07T05:16:53.158Z,4.04
2024-02-07T05:18:56.934Z,4.03
2024-02-07T05:21:00.340Z,4.02
2024-02-07T05:23:03.568Z,4.02
2024-02-07T05:25:07.590Z,4.02
2024-02-07T05:27:13.691Z,4.03
2024-02-07T05:29:18.789Z,4.03
2024-02-07T05:31:23.333Z,4.03
2024-02-07T05:33:26.822Z,4.01
2024-02-07T05:35:30.025Z,4.02
2024-02-07T05:37:33.425Z,4.01
2024-02-07T05:39:38.885Z,4.00
2024-02-07T05:41:44.959Z,4.01
2024-02-07T05:43:48.302Z,4.01
2024-02-07T05:45:51.337Z,4.00
2024-02-07T05:47:55.797Z,3.99
2024-02-07T05:49:59.335Z,3.97
2024-02-07T05:52:03.290Z,3.97
2024-02-07T05:54:07.000Z,3.95
2024-02-07T05:56:10.504Z,3.92
2024-02-07T05:58:14.510Z,3.91
2024-02-07T06:00:18.958Z,3.89
2024-02-07T06:02:22.158Z,3.86
2024-02-07T06:04:26.813Z,3.84
2024-02-07T06:06:31.493Z,3.83
2024-02-07T06:08:36.880Z,3.80
2024-02-07T06:10:41.476Z,3.78
2024-02-07T06:12:46.338Z,3.76
2024-02-07T06:14:50.013Z,3.73
2024-02-07T06:16:53.201Z,3.72
2024-02-07T06:18:56.624Z,3.70
2024-02-07T06:21:01.167Z,3.70
2024-02-07T06:23:04.659Z,3.69
2024-02-07T06:25:08.042Z,3.68
2024-02-07T06:27:10.252Z,3.66
2024-02-07T06:29:13.310Z,3.65
2024-02-07T06:31:16.599Z,3.64
2024-02-07T06:33:19.702Z,3.63
2024-02-07T06:35:23.329Z,3.62
2024-02-07T06:37:29.768Z,3.63
2024-02-07T06:39:32.858Z,3.61
2024-02-07T06:41:35.912Z,3.60
2024-02-07T06:43:38.998Z,3.60
2024-02-07T06:45:42.181Z,3.57
2024-02-07T06:47:45.430Z,3.56
2024-02-07T06:49:48.874Z,3.54
2024-02-07T06:51:51.020Z,3.52
2024-02-07T06:53:55.434Z,3.50
2024-02-07T06:56:00.419Z,3.47
2024-02-07T06:58:03.716Z,3.46
2024-02-07T07:00:08.283Z,3.42
2024-02-07T07:02:11.532Z,3.41
2024-02-07T07:04:15.054Z,3.38
2024-02-07T07:06:18.188Z,3.36
2024-02-07T07:08:21.417Z,3.34
2024-02-07T07:10:25.959Z,3.31
2024-02-07T07:12:29.158Z,3.30
2024-02-07T07:14:32.173Z,3.28
2024-02-07T07:16:35.245Z,3.27
2024-02-07T07:18:37.373Z,3.25
2024-02-07T07:20:42.198Z,3.24
2024-02-07T07:22:48.601Z,3.22
2024-02-07T07:24:56.374Z,3.21
2024-02-07T07:27:02.802Z,3.19
2024-02-07T07:29:06.296Z,3.17
2024-02-07T07:31:09.992Z,3.17
2024-02-07T07:33:12.689Z,3.14
2024-02-07T07:35:16.132Z,3.12
2024-02-07T07:37:19.805Z,3.12
2024-02-07T07:39:22.888Z,3.10
2024-02-07T07:41:26.124Z,3.10
2024-02-07T07:43:30.558Z,3.07
2024-02-07T07:45:33.678Z,3.08
2024-02-07T07:47:40.398Z,3.09
2024-02-07T07:49:43.680Z,3.08
2024-02-07T07:51:46.922Z,3.10
2024-02-07T07:53:50.588Z,3.10
2024-02-07T07:55:53.710Z,3.12
2024-02-07T07:57:55.984Z,3.14
2024-02-07T08:00:00.427Z,3.15
2024-02-07T08:02:04.307Z,3.18
2024-02-07T08:04:07.396Z,3.18
2024-02-07T08:06:09.823Z,3.19
2024-02-07T08:08:13.269Z,3.19
2024-02-07T08:10:16.830Z,3.20
2024-02-07T08:12:20.401Z,3.21
2024-02-07T08:14:23.553Z,3.22
2024-02-07T08:16:28.164Z,3.25
2024-02-07T08:18:32.628Z,3.26
2024-02-07T08:20:35.739Z,3.27
2024-02-07T08:22:39.007Z,3.30
2024-02-07T08:24:42.089Z,3.31
2024-02-07T08:26:47.278Z,3.32
2024-02-07T08:28:52.826Z,3.35
2024-02-07T08:30:55.849Z,3.37
2024-02-07T08:33:00.303Z,3.42
2024-02-07T08:35:03.960Z,3.45
2024-02-07T08:37:07.595Z,3.48
2024-02-07T08:39:10.617Z,3.52
2024-02-07T08:41:13.789Z,3.56
2024-02-07T08:43:53.327Z,3.60
2024-02-07T08:46:48.304Z,3.66
2024-02-07T08:48:52.859Z,3.71
2024-02-07T08:50:56.044Z,3.73
2024-02-07T08:53:00.194Z,3.74
2024-02-07T08:55:03.158Z,3.73
2024-02-07T08:57:06.455Z,3.74
2024-02-07T08:59:09.555Z,3.77
2024-02-07T09:01:11.949Z,3.80
2024-02-07T09:03:14.988Z,3.83
2024-02-07T09:05:21.213Z,3.88
2024-02-07T09:07:26.452Z,3.91
2024-02-07T09:09:34.153Z,3.93
2024-02-07T09:11:37.299Z,3.96
2024-02-07T09:13:40.248Z,3.97
2024-02-07T09:15:43.346Z,3.97
2024-02-07T09:17:46.347Z,3.99
2024-02-07T09:19:49.408Z,3.98
2024-02-07T09:21:53.752Z,3.97
2024-02-07T09:23:57.912Z,3.97
2024-02-07T09:26:00.937Z,3.96
2024-02-07T09:28:03.930Z,3.95
2024-02-07T09:30:12.654Z,3.97
2024-02-07T09:32:17.278Z,3.99
2024-02-07T09:34:20.352Z,4.01
2024-02-07T09:36:23.600Z,4.03
2024-02-07T09:38:28.541Z,4.07
2024-02-07T09:40:31.664Z,4.10
2024-02-07T09:42:38.876Z,4.14
2024-02-07T09:44:46.650Z,4.15
2024-02-07T09:46:54.997Z,4.18
2024-02-07T09:48:58.445Z,4.21
2024-02-07T09:51:01.801Z,4.24
2024-02-07T09:53:07.011Z,4.28
2024-02-07T09:55:12.238Z,4.33
2024-02-07T09:57:16.196Z,4.37
2024-02-07T09:59:21.794Z,4.43
2024-02-07T10:01:28.873Z,4.47
2024-02-07T10:03:35.576Z,4.49
2024-02-07T10:05:40.005Z,4.50
2024-02-07T10:07:44.139Z,4.51
2024-02-07T10:09:50.166Z,4.50
2024-02-07T10:11:54.908Z,4.50
2024-02-07T10:13:58.048Z,4.49
2024-02-07T10:16:03.495Z,4.47
2024-02-07T10:18:08.834Z,4.44
2024-02-07T10:20:12.610Z,4.43
2024-02-07T10:22:18.336Z,4.43
2024-02-07T10:24:21.912Z,4.42
2024-02-07T10:26:25.821Z,4.43
2024-02-07T10:28:31.848Z,4.42
2024-02-07T10:30:35.005Z,4.42
2024-02-07T10:32:40.133Z,4.40
2024-02-07T10:34:43.362Z,4.39
2024-02-07T10:36:46.487Z,4.39
2024-02-07T10:38:49.734Z,4.40
2024-02-07T10:40:55.581Z,4.44
2024-02-07T10:42:59.729Z,4.50
2024-02-07T10:45:08.914Z,4.56
2024-02-07T10:47:12.329Z,4.61
2024-02-07T10:49:15.576Z,4.66
2024-02-07T10:51:19.779Z,4.73
2024-02-07T10:53:23.516Z,4.77
2024-02-07T10:55:27.375Z,4.80
2024-02-07T10:57:36.473Z,4.83
2024-02-07T10:59:41.434Z,4.86
2024-02-07T11:01:46.979Z,4.89
2024-02-07T11:03:50.374Z,4.92
2024-02-07T11:05:53.805Z,4.96
2024-02-07T11:07:56.383Z,4.99
2024-02-07T11:10:12.155Z,5.02
2024-02-07T11:12:30.998Z,5.06
2024-02-07T11:14:41.554Z,5.09
2024-02-07T11:16:55.788Z,5.15
2024-02-07T11:19:11.232Z,5.19
2024-02-07T11:21:42.601Z,5.20
2024-02-07T11:24:04.376Z,5.19
2024-02-07T11:26:18.300Z,5.19
2024-02-07T11:28:27.843Z,5.19
2024-02-07T11:30:31.781Z,5.16
2024-02-07T11:32:37.263Z,5.15
2024-02-07T11:34:40.589Z,5.15
2024-02-07T11:36:54.186Z,5.14
2024-02-07T11:38:59.693Z,5.14
2024-02-07T11:41:05.929Z,5.15
2024-02-07T11:43:11.607Z,5.16
2024-02-07T11:45:15.825Z,5.20
2024-02-07T11:47:25.327Z,5.25
2024-02-07T11:49:30.404Z,5.29
2024-02-07T11:51:35.633Z,5.35
2024-02-07T11:53:43.006Z,5.40
2024-02-07T11:55:48.046Z,5.44
2024-02-07T11:57:54.732Z,5.47
2024-02-07T12:00:00.254Z,5.50
2024-02-07T12:02:04.740Z,5.50
2024-02-07T12:04:08.042Z,5.48
2024-02-07T12:06:14.006Z,5.46
2024-02-07T12:08:19.682Z,5.47
2024-02-07T12:10:23.447Z,5.45
2024-02-07T12:12:26.641Z,5.43
2024-02-07T12:14:29.671Z,5.42
2024-02-07T12:16:32.860Z,5.42
2024-02-07T12:18:36.815Z,5.41
2024-02-07T12:20:40.106Z,5.40
2024-02-07T12:22:44.713Z,5.38
2024-02-07T12:24:48.488Z,5.37
2024-02-07T12:26:51.535Z,5.35
2024-02-07T12:28:58.503Z,5.33
2024-02-07T12:31:02.618Z,5.33
2024-02-07T12:33:06.245Z,5.32
2024-02-07T12:35:09.201Z,5.31
2024-02-07T12:37:14.503Z,5.29
2024-02-07T12:39:27.792Z,5.28
2024-02-07T12:41:32.520Z,5.24
2024-02-07T12:43:37.736Z,5.21
2024-02-07T12:45:43.887Z,5.19
2024-02-07T12:47:48.651Z,5.22
2024-02-07T12:49:53.592Z,5.22
2024-02-07T12:51:57.427Z,5.24
2024-02-07T12:54:04.990Z,5.25
2024-02-07T12:56:18.550Z,5.25
2024-02-07T12:58:22.699Z,5.26
2024-02-07T13:00:26.924Z,5.27
2024-02-07T13:02:33.237Z,5.28
2024-02-07T13:04:37.794Z,5.30
2024-02-07T13:06:44.073Z,5.33
2024-02-07T13:08:48.624Z,5.36
2024-02-07T13:10:52.346Z,5.38
2024-02-07T13:12:57.044Z,5.39
2024-02-07T13:15:02.075Z,5.39
2024-02-07T13:17:05.748Z,5.38
2024-02-07T13:19:09.277Z,5.34
2024-02-07T13:21:15.317Z,5.29
2024-02-07T13:23:20.040Z,5.25
2024-02-07T13:25:25.343Z,5.20
2024-02-07T13:27:28.916Z,5.17
2024-02-07T13:29:34.698Z,5.11
2024-02-07T13:31:38.127Z,5.09
2024-02-07T13:33:41.533Z,5.08
2024-02-07T13:35:44.752Z,5.08
2024-02-07T13:37:47.963Z,5.07
2024-02-07T13:39:50.534Z,5.06
2024-02-07T13:41:53.941Z,5.05
2024-02-07T13:43:57.797Z,5.04
2024-02-07T13:46:02.771Z,5.04
2024-02-07T13:48:06.978Z,5.04
2024-02-07T13:50:11.304Z,5.01
2024-02-07T13:52:14.932Z,4.99
2024-02-07T13:54:18.074Z,4.95
2024-02-07T13:56:21.624Z,4.90
2024-02-07T13:58:25.993Z,4.85
2024-02-07T14:00:29.248Z,4.80
2024-02-07T14:02:33.705Z,4.73
2024-02-07T14:04:36.857Z,4.68
2024-02-07T14:06:43.489Z,4.65
2024-02-07T14:08:48.051Z,4.62
2024-02-07T14:10:50.716Z,4.61
2024-02-07T14:12:53.939Z,4.62
2024-02-07T14:14:56.983Z,4.61
2024-02-07T14:17:00.193Z,4.64
2024-02-07T14:19:05.153Z,4.63
2024-02-07T14:21:09.319Z,4.64
2024-02-07T14:23:13.428Z,4.63
2024-02-07T14:25:16.721Z,4.65
2024-02-07T14:27:19.842Z,4.64
2024-02-07T14:29:23.088Z,4.61
2024-02-07T14:31:26.738Z,4.56
2024-02-07T14:33:30.295Z,4.49
2024-02-07T14:35:35.028Z,4.43
2024-02-07T14:37:40.325Z,4.39
2024-02-07T14:39:43.385Z,4.40
2024-02-07T14:41:46.387Z,4.50
2024-02-07T14:43:49.477Z,4.59
2024-02-07T14:45:52.654Z,4.66
2024-02-07T14:47:55.966Z,4.72
2024-02-07T14:49:59.237Z,4.73
2024-02-07T14:52:03.809Z,4.71
2024-02-07T14:54:06.956Z,4.65
2024-02-07T14:56:10.530Z,4.57
2024-02-07T14:58:13.617Z,4.50
2024-02-07T15:00:16.534Z,4.41
2024-02-07T15:02:19.603Z,4.38
2024-02-07T15:04:22.773Z,4.35
2024-02-07T15:06:26.106Z,4.33
2024-02-07T15:08:30.495Z,4.31
2024-02-07T15:10:33.643Z,4.33
2024-02-07T15:12:36.706Z,4.34
2024-02-07T15:14:39.758Z,4.37
2024-02-07T15:16:43.062Z,4.34
2024-02-07T15:18:46.137Z,4.31
2024-02-07T15:20:49.291Z,4.28
2024-02-07T15:22:52.230Z,4.25
2024-02-07T15:24:56.666Z,4.21
2024-02-07T15:26:59.725Z,4.17
2024-02-07T15:29:02.911Z,4.13
2024-02-07T15:31:06.363Z,4.06
2024-02-07T15:33:09.571Z,4.01
2024-02-07T15:35:13.639Z,3.96
2024-02-07T15:37:18.204Z,3.93
2024-02-07T15:39:21.450Z,3.89
2024-02-07T15:41:25.864Z,3.85
2024-02-07T15:43:29.733Z,3.79
2024-02-07T15:45:32.870Z,3.74
2024-02-07T15:47:35.941Z,3.69
2024-02-07T15:49:39.404Z,3.65
2024-02-07T15:51:42.561Z,3.60
2024-02-07T15:53:44.702Z,3.55
2024-02-07T15:55:47.837Z,3.51
2024-02-07T15:57:52.204Z,3.46
2024-02-07T15:59:55.514Z,3.41
2024-02-07T16:01:58.942Z,3.34
2024-02-07T16:04:02.061Z,3.30
2024-02-07T16:06:05.544Z,3.24
2024-02-07T16:08:11.051Z,3.18
2024-02-07T16:10:15.171Z,3.12
2024-02-07T16:12:18.265Z,3.05
2024-02-07T16:14:22.863Z,2.99
2024-02-07T16:16:25.103Z,2.94
2024-02-07T16:18:30.171Z,2.91
2024-02-07T16:20:33.947Z,2.85
2024-02-07T16:22:37.118Z,2.80
2024-02-07T16:24:40.352Z,2.76
2024-02-07T16:26:43.543Z,2.71
2024-02-07T16:28:46.772Z,2.66
2024-02-07T16:30:51.326Z,2.61
2024-02-07T16:32:54.427Z,2.57
2024-02-07T16:34:57.589Z,2.53
2024-02-07T16:37:01.693Z,2.48
2024-02-07T16:39:05.861Z,2.45
2024-02-07T16:41:10.767Z,2.39
2024-02-07T16:43:14.057Z,2.37
2024-02-07T16:45:17.142Z,2.33
2024-02-07T16:47:21.545Z,2.29
2024-02-07T16:49:26.825Z,2.27
2024-02-07T16:51:32.113Z,2.23
2024-02-07T16:53:35.256Z,2.21
2024-02-07T16:55:38.488Z,2.18
2024-02-07T16:57:42.064Z,2.15
2024-02-07T16:59:46.881Z,2.12
2024-02-07T17:01:50.097Z,2.09
2024-02-07T17:03:55.023Z,2.07
2024-02-07T17:05:58.279Z,2.05
2024-02-07T17:08:01.532Z,2.03
2024-02-07T17:10:05.187Z,2.01
2024-02-07T17:12:09.247Z,1.99
2024-02-07T17:14:12.386Z,1.97
2024-02-07T17:16:16.239Z,1.96
2024-02-07T17:18:19.533Z,1.95
2024-02-07T17:20:24.204Z,1.94
2024-02-07T17:22:27.453Z,1.92
2024-02-07T17:24:30.541Z,1.90
2024-02-07T17:26:33.599Z,1.87
2024-02-07T17:28:38.038Z,1.85
2024-02-07T17:30:42.529Z,1.84
2024-02-07T17:32:46.983Z,1.81
2024-02-07T17:34:50.373Z,1.79
2024-02-07T17:36:57.584Z,1.77
2024-02-07T17:39:01.043Z,1.75
2024-02-07T17:41:08.629Z,1.72
2024-02-07T17:43:12.079Z,1.69
2024-02-07T17:45:18.211Z,1.66
2024-02-07T17:47:21.274Z,1.63
2024-02-07T17:49:24.555Z,1.60
2024-02-07T17:51:26.918Z,1.56
2024-02-07T17:53:31.379Z,1.50
2024-02-07T17:55:34.565Z,1.46
2024-02-07T17:57:38.052Z,1.42
2024-02-07T17:59:41.522Z,1.39
2024-02-07T18:01:44.692Z,1.35
2024-02-07T18:03:47.801Z,1.34
2024-02-07T18:05:51.055Z,1.33
2024-02-07T18:07:56.972Z,1.31
2024-02-07T18:10:01.563Z,1.30
2024-02-07T18:12:06.372Z,1.27
2024-02-07T18:14:09.468Z,1.23
2024-02-07T18:16:17.697Z,1.20
2024-02-07T18:18:20.900Z,1.19
2024-02-07T18:20:24.646Z,1.19
2024-02-07T18:22:27.901Z,1.15
2024-02-07T18:24:31.048Z,1.13
2024-02-07T18:26:37.339Z,1.11
2024-02-07T18:28:40.887Z,1.07
2024-02-07T18:30:46.565Z,1.03
2024-02-07T18:32:49.893Z,1.00
2024-02-07T18:34:52.156Z,0.97
2024-02-07T18:36:55.351Z,0.93
2024-02-07T18:38:58.478Z,0.91
2024-02-07T18:41:01.687Z,0.88
2024-02-07T18:43:06.278Z,0.85
2024-02-07T18:45:09.977Z,0.83
2024-02-07T18:47:13.121Z,0.82
2024-02-07T18:49:16.303Z,0.80
2024-02-07T18:51:19.958Z,0.77
2024-02-07T18:55:59.678Z,0.71
2024-02-07T18:58:02.787Z,0.69
2024-02-07T19:00:09.905Z,0.67
2024-02-07T19:02:16.108Z,0.65
2024-02-07T19:04:22.006Z,0.63
2024-02-07T19:06:25.525Z,0.62
2024-02-07T19:08:28.782Z,0.60
2024-02-07T19:10:32.020Z,0.59
2024-02-07T19:12:35.204Z,0.57
2024-02-07T19:14:38.258Z,0.56
2024-02-07T19:16:43.897Z,0.54
2024-02-07T19:18:47.220Z,0.52
2024-02-07T19:20:50.462Z,0.51
2024-02-07T19:22:53.651Z,0.48
2024-02-07T19:24:56.731Z,0.46
2024-02-07T19:26:59.790Z,0.44
2024-02-07T19:29:02.953Z,0.42
2024-02-07T19:31:06.637Z,0.41
2024-02-07T19:33:11.049Z,0.41
2024-02-07T19:35:14.594Z,0.38
2024-02-07T19:37:17.708Z,0.37
2024-02-07T19:39:20.831Z,0.36
2024-02-07T19:41:24.277Z,0.34
2024-02-07T19:43:27.489Z,0.32
2024-02-07T19:45:30.688Z,0.33
2024-02-07T19:47:33.994Z,0.31
2024-02-07T19:49:38.809Z,0.29
2024-02-07T19:51:42.125Z,0.26
2024-02-07T19:53:44.214Z,0.24
2024-02-07T19:55:47.355Z,0.21
2024-02-07T19:57:50.429Z,0.19
2024-02-07T19:59:53.518Z,0.17
2024-02-07T20:01:57.744Z,0.15
2024-02-07T20:04:00.982Z,0.13
2024-02-07T20:06:05.953Z,0.12
2024-02-07T20:08:10.322Z,0.09
2024-02-07T20:10:13.448Z,0.09
2024-02-07T20:12:17.096Z,0.07
2024-02-07T20:14:20.522Z,0.06
2024-02-07T20:16:22.727Z,0.04
2024-02-07T20:18:26.155Z,0.02
2024-02-07T20:20:29.485Z,0.02
2024-02-07T20:22:34.252Z,0.00
2024-02-07T20:24:38.585Z,-0.01
2024-02-07T20:26:41.775Z,-0.03
2024-02-07T20:28:44.899Z,-0.04
2024-02-07T20:30:48.578Z,-0.04
2024-02-07T20:32:51.803Z,-0.06
2024-02-07T20:34:55.125Z,-0.05
2024-02-07T20:37:03.334Z,-0.06
2024-02-07T20:39:07.925Z,-0.06
2024-02-07T20:41:11.256Z,-0.07
2024-02-07T20:43:15.397Z,-0.08
2024-02-07T20:45:20.674Z,-0.09
2024-02-07T20:47:23.830Z,-0.11
2024-02-07T20:49:27.889Z,-0.13
2024-02-07T20:51:30.189Z,-0.17
2024-02-07T20:53:35.416Z,-0.18
2024-02-07T20:55:40.125Z,-0.19
2024-02-07T20:57:43.517Z,-0.22
2024-02-07T20:59:46.774Z,-0.24
2024-02-07T21:01:49.986Z,-0.25
2024-02-07T21:03:53.633Z,-0.27
2024-02-07T21:05:57.767Z,-0.30
2024-02-07T21:07:59.988Z,-0.31
2024-02-07T21:10:03.714Z,-0.33
2024-02-07T21:12:08.968Z,-0.37
2024-02-07T21:14:13.210Z,-0.38
2024-02-07T21:16:16.383Z,-0.40
2024-02-07T21:18:19.695Z,-0.41
2024-02-07T21:20:23.038Z,-0.42
2024-02-07T21:22:26.449Z,-0.43
2024-02-07T21:24:29.497Z,-0.44
2024-02-07T21:26:32.613Z,-0.44
2024-02-07T21:28:37.109Z,-0.45
2024-02-07T21:30:40.271Z,-0.44
2024-02-07T21:32:43.439Z,-0.44
2024-02-07T21:34:47.202Z,-0.43
2024-02-07T21:36:49.584Z,-0.41
2024-02-07T21:38:52.658Z,-0.40
2024-02-07T21:40:55.886Z,-0.38
2024-02-07T21:42:59.156Z,-0.38
2024-02-07T21:45:04.169Z,-0.37
2024-02-07T21:47:07.971Z,-0.35
2024-02-07T21:49:11.187Z,-0.34
2024-02-07T21:51:18.089Z,-0.35
2024-02-07T21:53:23.787Z,-0.33
2024-02-07T21:55:25.831Z,-0.32
2024-02-07T21:57:28.869Z,-0.32
2024-02-07T21:59:31.916Z,-0.31
2024-02-07T22:01:35.703Z,-0.28
2024-02-07T22:03:38.799Z,-0.26
2024-02-07T22:05:42.999Z,-0.24
2024-02-07T22:07:46.274Z,-0.23
2024-02-07T22:09:49.463Z,-0.22
2024-02-07T22:11:52.495Z,-0.21
2024-02-07T22:13:55.588Z,-0.21
2024-02-07T22:15:58.647Z,-0.21
2024-02-07T22:18:03.228Z,-0.20
2024-02-07T22:20:07.478Z,-0.19
2024-02-07T22:22:13.767Z,-0.18
2024-02-07T22:24:16.803Z,-0.18
2024-02-07T22:26:20.046Z,-0.18
2024-02-07T22:28:23.126Z,-0.18
2024-02-07T22:30:26.382Z,-0.19
2024-02-07T22:32:29.460Z,-0.19
2024-02-07T22:34:34.108Z,-0.18
2024-02-07T22:36:37.861Z,-0.17
2024-02-07T22:38:41.139Z,-0.16
2024-02-07T22:40:44.427Z,-0.16
2024-02-07T22:42:46.522Z,-0.16
2024-02-07T22:44:49.724Z,-0.15
2024-02-07T22:46:52.943Z,-0.14
2024-02-07T22:48:56.068Z,-0.14
2024-02-07T22:51:00.574Z,-0.12
2024-02-07T22:53:03.795Z,-0.11
2024-02-07T22:55:07.229Z,-0.09
2024-02-07T22:57:10.214Z,-0.09
2024-02-07T22:59:13.351Z,-0.08
2024-02-07T23:01:16.558Z,-0.06
2024-02-07T23:03:22.441Z,-0.05
2024-02-07T23:05:25.768Z,-0.04
2024-02-07T23:07:30.275Z,-0.03
2024-02-07T23:09:35.100Z,-0.01
2024-02-07T23:11:37.478Z,-0.01
2024-02-07T23:13:40.582Z,0.01
2024-02-07T23:15:44.777Z,0.03
2024-02-07T23:17:47.981Z,0.03
2024-02-07T23:19:49.993Z,0.07
2024-02-07T23:21:53.184Z,0.09
2024-02-07T23:23:57.661Z,0.12
2024-02-07T23:26:00.746Z,0.16
2024-02-07T23:28:06.401Z,0.18
2024-02-07T23:30:10.160Z,0.22
2024-02-07T23:32:13.235Z,0.25
2024-02-07T23:34:16.328Z,0.28
2024-02-07T23:36:19.414Z,0.29
2024-02-07T23:38:22.558Z,0.30
2024-02-07T23:40:27.017Z,0.31
2024-02-07T23:42:30.165Z,0.32
2024-02-07T23:44:35.255Z,0.32
2024-02-07T23:46:38.879Z,0.31
2024-02-07T23:48:42.276Z,0.31
2024-02-07T23:50:45.752Z,0.29
2024-02-07T23:52:48.837Z,0.28
2024-02-07T23:54:51.450Z,0.27
2024-02-07T23:56:55.838Z,0.26
2024-02-07T23:58:58.976Z,0.26
